Time;durP1;ratioP1;P1;durP2;ratioP2;P2;SDS_P1;SDS_P2;PMS_P1;PMS_P2;Temp;Humidity;BMP_temperature;BMP_pressure;BME280_temperature;BME280_humidity;BME280_pressure;Samples;Min_cycle;Max_cycle;Signal;HPM_P1;HPM_P2
2023/05/11 00:01:33;;;;;;;1999.90;999.90;;;12.90;99.90;;;;;;5033052;28;20036;-73
2023/05/11 00:03:59;;;;;;;1999.90;999.90;;;12.90;99.90;;;;;;5034002;28;20085;-79
2023/05/11 00:06:25;;;;;;;1999.90;999.90;;;12.90;99.90;;;;;;5035508;28;20030;-73
2023/05/11 00:08:51;;;;;;;1999.90;999.90;;;12.80;99.90;;;;;;5041761;28;20032;-78
2023/05/11 00:11:17;;;;;;;1999.90;999.90;;;12.80;99.90;;;;;;5034273;28;20132;-73
2023/05/11 00:13:43;;;;;;;1999.90;999.90;;;12.80;99.90;;;;;;5034746;28;20488;-73
2023/05/11 00:16:09;;;;;;;1999.90;999.90;;;12.90;99.90;;;;;;5035738;28;20040;-78
2023/05/11 00:18:35;;;;;;;1999.90;999.90;;;12.90;99.90;;;;;;5035496;28;20029;-78
2023/05/11 00:21:01;;;;;;;1999.90;999.90;;;12.90;99.90;;;;;;5035385;28;20049;-74
2023/05/11 00:23:27;;;;;;;1999.90;999.90;;;12.80;99.90;;;;;;5035445;28;20017;-73
2023/05/11 00:25:52;;;;;;;1999.90;999.90;;;12.80;99.90;;;;;;5033941;28;20069;-74
2023/05/11 00:28:18;;;;;;;1999.90;999.90;;;12.70;99.90;;;;;;5040538;28;20044;-79
2023/05/11 00:30:44;;;;;;;1999.90;999.90;;;12.80;99.90;;;;;;5035408;28;20087;-79
2023/05/11 00:33:10;;;;;;;1999.90;999.90;;;12.80;99.90;;;;;;5033885;28;20129;-79
2023/05/11 00:35:36;;;;;;;1999.90;999.90;;;12.80;99.90;;;;;;5034365;28;20029;-73
2023/05/11 00:38:01;;;;;;;1999.90;999.90;;;12.90;99.90;;;;;;5035224;28;20032;-74
2023/05/11 00:40:27;;;;;;;1999.90;999.90;;;13.00;99.90;;;;;;5035074;28;20476;-74
2023/05/11 00:42:52;;;;;;;1999.90;999.90;;;13.10;99.90;;;;;;5035145;28;20452;-79
2023/05/11 00:45:18;;;;;;;1999.90;999.90;;;13.10;99.90;;;;;;5034947;28;20064;-79
2023/05/11 00:47:44;;;;;;;1999.90;999.90;;;13.10;99.90;;;;;;5035315;28;20041;-78
2023/05/11 00:50:10;;;;;;;1999.90;999.90;;;13.10;99.90;;;;;;5035131;28;20091;-79
2023/05/11 00:52:35;;;;;;;1999.90;999.90;;;13.10;99.90;;;;;;5033239;28;20179;-73
2023/05/11 00:55:01;;;;;;;1999.90;999.90;;;13.10;99.90;;;;;;5035020;28;20032;-79
2023/05/11 00:57:29;;;;;;;1999.90;999.90;;;13.10;99.90;;;;;;5034963;28;20097;-79
2023/05/11 00:59:55;;;;;;;1999.90;999.90;;;13.10;99.90;;;;;;5034754;28;20112;-79
2023/05/11 01:02:20;;;;;;;1999.90;999.90;;;13.10;99.90;;;;;;5021369;28;20147;-73
2023/05/11 01:04:46;;;;;;;1999.90;999.90;;;13.10;99.90;;;;;;5034583;28;20037;-73
2023/05/11 01:07:18;;;;;;;1999.90;999.90;;;13.10;99.90;;;;;;5038628;28;20029;-74
2023/05/11 01:10:15;;;;;;;1999.90;999.90;;;13.10;99.90;;;;;;5034785;28;20033;-79
2023/05/11 01:12:44;;;;;;;1999.90;999.90;;;13.10;99.90;;;;;;5024981;28;20037;-79
2023/05/11 01:15:19;;;;;;;1999.90;999.90;;;13.10;99.90;;;;;;5033273;28;20045;-73
2023/05/11 01:18:01;;;;;;;1999.90;999.90;;;13.00;99.90;;;;;;5034094;28;20036;-73
2023/05/11 01:20:29;;;;;;;1999.90;999.90;;;12.90;99.90;;;;;;5033972;28;20032;-78
2023/05/11 01:23:09;;;;;;;1999.90;999.90;;;12.80;99.90;;;;;;5034828;28;20017;-73
2023/05/11 01:25:55;;;;;;;1999.90;999.90;;;12.60;99.90;;;;;;5034346;28;20108;-78
2023/05/11 01:28:48;;;;;;;1999.90;999.90;;;12.50;99.90;;;;;;5027639;28;20033;-73
2023/05/11 01:31:16;;;;;;;1999.90;999.90;;;12.40;99.90;;;;;;5032913;28;20038;-78
2023/05/11 01:33:58;;;;;;;1999.90;999.90;;;12.40;99.90;;;;;;5049125;28;20025;-78
2023/05/11 01:36:28;;;;;;;1999.90;999.90;;;12.40;99.90;;;;;;5054080;28;20395;-78
2023/05/11 01:38:59;;;;;;;1999.90;999.90;;;12.30;99.90;;;;;;5053487;28;20114;-78
2023/05/11 01:41:28;;;;;;;1999.90;999.90;;;12.30;99.90;;;;;;5054009;28;20021;-73
2023/05/11 01:43:57;;;;;;;1999.90;999.90;;;12.30;99.90;;;;;;5053766;28;20037;-73
2023/05/11 01:46:27;;;;;;;1999.90;999.90;;;12.40;99.90;;;;;;5034137;28;20045;-75
2023/05/11 01:48:56;;;;;;;1999.90;999.90;;;12.30;99.90;;;;;;5033809;28;20025;-79
2023/05/11 01:51:22;;;;;;;1999.90;999.90;;;12.30;99.90;;;;;;5033924;28;20025;-73
2023/05/11 01:53:50;;;;;;;1999.90;999.90;;;12.30;99.90;;;;;;5033387;28;20515;-73
2023/05/11 01:56:19;;;;;;;1999.90;999.90;;;12.20;99.90;;;;;;5034038;28;20025;-79
2023/05/11 01:58:45;;;;;;;1999.90;999.90;;;12.20;99.90;;;;;;5033801;28;20036;-78
2023/05/11 02:01:13;;;;;;;1999.90;999.90;;;12.20;99.90;;;;;;5033624;28;20124;-79
2023/05/11 02:03:40;;;;;;;1999.90;999.90;;;12.10;99.90;;;;;;5033726;28;20407;-79
2023/05/11 02:06:08;;;;;;;1999.90;999.90;;;12.10;99.90;;;;;;5033619;28;20573;-73
2023/05/11 02:08:35;;;;;;;1999.90;999.90;;;12.10;99.90;;;;;;5033729;28;20485;-74
2023/05/11 02:11:02;;;;;;;1999.90;999.90;;;12.10;99.90;;;;;;5033726;28;20025;-79
2023/05/11 02:13:29;;;;;;;1999.90;999.90;;;12.10;99.90;;;;;;5031274;28;20033;-73
2023/05/11 02:15:56;;;;;;;1999.90;999.90;;;12.10;99.90;;;;;;5033328;28;20026;-79
2023/05/11 02:18:22;;;;;;;1999.90;999.90;;;12.20;99.90;;;;;;5033259;28;20030;-79
2023/05/11 02:20:48;;;;;;;1999.90;999.90;;;12.20;99.90;;;;;;5033352;28;20026;-73
2023/05/11 02:23:16;;;;;;;1999.90;999.90;;;12.30;99.90;;;;;;5032810;28;20104;-73
2023/05/11 02:25:42;;;;;;;1999.90;999.90;;;12.30;99.90;;;;;;5033219;28;20025;-79
2023/05/11 02:28:08;;;;;;;1999.90;999.90;;;12.30;99.90;;;;;;5033404;28;20037;-79
2023/05/11 02:30:47;;;;;;;1999.90;999.90;;;12.30;99.90;;;;;;5033098;28;20036;-78
2023/05/11 02:33:20;;;;;;;1999.90;999.90;;;12.40;99.90;;;;;;5032132;28;20034;-73
2023/05/11 02:35:45;;;;;;;;;;;12.50;99.90;;;;;;5045091;28;20395;-74
2023/05/11 02:38:13;;;;;;;1999.90;999.90;;;12.50;99.90;;;;;;5013909;28;20008;-74
2023/05/11 02:40:44;;;;;;;1999.90;999.90;;;12.50;99.90;;;;;;5013215;28;20484;-74
2023/05/11 02:43:12;;;;;;;1999.90;999.90;;;12.40;99.90;;;;;;5013596;28;20044;-74
2023/05/11 02:45:43;;;;;;;1999.90;999.90;;;12.30;99.90;;;;;;5027194;28;20037;-73
2023/05/11 02:48:18;;;;;;;1999.90;999.90;;;12.30;99.90;;;;;;5033329;28;20097;-74
2023/05/11 02:50:44;;;;;;;1999.90;999.90;;;12.30;99.90;;;;;;5033410;28;20026;-73
2023/05/11 02:53:15;;;;;;;1999.90;999.90;;;12.30;99.90;;;;;;5032645;28;20036;-74
2023/05/11 02:55:42;;;;;;;1999.90;999.90;;;12.40;99.90;;;;;;5033360;28;20045;-79
2023/05/11 02:58:08;;;;;;;1999.90;999.90;;;12.40;99.90;;;;;;5032885;28;20422;-79
2023/05/11 03:00:34;;;;;;;1999.90;999.90;;;12.40;99.90;;;;;;5032698;28;20026;-74
2023/05/11 03:03:00;;;;;;;1999.90;999.90;;;12.40;99.90;;;;;;5032979;28;20100;-74
2023/05/11 03:05:26;;;;;;;1999.90;999.90;;;12.40;99.90;;;;;;5032948;28;20582;-79
2023/05/11 03:07:56;;;;;;;1999.90;999.90;;;12.40;99.90;;;;;;5031422;28;20026;-74
2023/05/11 03:10:23;;;;;;;1999.90;999.90;;;12.40;99.90;;;;;;5033143;28;20036;-79
2023/05/11 03:12:49;;;;;;;1999.90;999.90;;;12.40;99.90;;;;;;5031831;28;20475;-74
2023/05/11 03:15:15;;;;;;;1999.90;999.90;;;12.40;99.90;;;;;;5033128;28;20026;-74
2023/05/11 03:17:42;;;;;;;1999.90;999.90;;;12.40;99.90;;;;;;5032632;28;20029;-73
2023/05/11 03:20:08;;;;;;;1999.90;999.90;;;12.40;99.90;;;;;;5032337;28;20024;-79
2023/05/11 03:22:36;;;;;;;1999.90;999.90;;;12.40;99.90;;;;;;5032883;28;20021;-74
2023/05/11 03:25:03;;;;;;;1999.90;999.90;;;12.40;99.90;;;;;;5032582;28;20057;-79
2023/05/11 03:27:30;;;;;;;1999.90;999.90;;;12.30;99.90;;;;;;5031229;28;20037;-74
2023/05/11 03:29:57;;;;;;;1999.90;999.90;;;12.30;99.90;;;;;;5032492;28;20025;-79
2023/05/11 03:32:23;;;;;;;1999.90;999.90;;;12.30;99.90;;;;;;5032505;28;20021;-79
2023/05/11 03:34:48;;;;;;;1999.90;999.90;;;12.30;99.90;;;;;;5034698;28;20040;-78
2023/05/11 03:37:16;;;;;;;1999.90;999.90;;;12.30;99.90;;;;;;5036341;28;20028;-79
2023/05/11 03:39:46;;;;;;;1999.90;999.90;;;12.30;99.90;;;;;;5036826;28;20029;-74
2023/05/11 03:42:14;;;;;;;1999.90;999.90;;;12.30;99.90;;;;;;5035161;28;20511;-74
2023/05/11 03:44:42;;;;;;;1999.90;999.90;;;12.40;99.90;;;;;;5035705;28;20045;-79
2023/05/11 03:47:09;;;;;;;1999.90;999.90;;;12.40;99.90;;;;;;5036296;28;20455;-74
2023/05/11 03:49:36;;;;;;;1999.90;999.90;;;12.40;99.90;;;;;;5034887;28;20030;-79
2023/05/11 03:52:03;;;;;;;1999.90;999.90;;;12.40;99.90;;;;;;5036605;28;20037;-74
2023/05/11 03:54:29;;;;;;;1999.90;999.90;;;12.30;99.90;;;;;;5035616;28;20064;-74
2023/05/11 03:56:55;;;;;;;1999.90;999.90;;;12.30;99.90;;;;;;5036111;28;20033;-79
2023/05/11 03:59:22;;;;;;;1999.90;999.90;;;12.30;99.90;;;;;;5036137;28;20028;-79
2023/05/11 04:01:51;;;;;;;1999.90;999.90;;;12.20;99.90;;;;;;5035854;28;20021;-79
2023/05/11 04:04:18;;;;;;;1999.90;999.90;;;12.20;99.90;;;;;;5036008;28;20504;-74
2023/05/11 04:06:44;;;;;;;1999.90;999.90;;;12.20;99.90;;;;;;5036062;28;20053;-79
2023/05/11 04:09:09;;;;;;;1999.90;999.90;;;12.30;99.90;;;;;;5034602;28;20060;-74
2023/05/11 04:11:38;;;;;;;1999.90;999.90;;;12.30;99.90;;;;;;5036244;28;20527;-79
2023/05/11 04:14:04;;;;;;;1999.90;999.90;;;12.30;99.90;;;;;;5034870;28;20109;-79
2023/05/11 04:16:29;;;;;;;1999.90;999.90;;;12.40;99.90;;;;;;5035903;28;20463;-74
2023/05/11 04:18:55;;;;;;;1999.90;999.90;;;12.40;99.90;;;;;;5035394;28;20017;-74
2023/05/11 04:21:21;;;;;;;1999.90;999.90;;;12.40;99.90;;;;;;5033053;28;20396;-74
2023/05/11 04:23:46;;;;;;;1999.90;999.90;;;12.40;99.90;;;;;;5035727;28;20033;-79
2023/05/11 04:26:12;;;;;;;1999.90;999.90;;;12.40;99.90;;;;;;5023483;28;20037;-79
2023/05/11 04:28:37;;;;;;;1999.90;999.90;;;12.40;99.90;;;;;;5017602;28;20048;-74
2023/05/11 04:31:03;;;;;;;1999.90;999.90;;;12.40;99.90;;;;;;5015664;28;20037;-74
2023/05/11 04:33:29;;;;;;;1999.90;999.90;;;12.40;99.90;;;;;;5015763;28;20061;-74
2023/05/11 04:35:54;;;;;;;1999.90;999.90;;;12.40;99.90;;;;;;5021183;28;20013;-79
2023/05/11 04:38:21;;;;;;;1999.90;999.90;;;12.30;99.90;;;;;;5035793;28;20083;-79
2023/05/11 04:40:47;;;;;;;1999.90;999.90;;;12.40;99.90;;;;;;5035851;28;20044;-78
2023/05/11 04:43:13;;;;;;;1999.90;999.90;;;12.40;99.90;;;;;;5035284;28;20104;-74
2023/05/11 04:45:39;;;;;;;1999.90;999.90;;;12.40;99.90;;;;;;5034501;28;20048;-73
2023/05/11 04:48:05;;;;;;;1999.90;999.90;;;12.50;99.90;;;;;;5034043;28;20026;-74
2023/05/11 04:50:31;;;;;;;1999.90;999.90;;;12.50;99.90;;;;;;5035195;28;20036;-78
2023/05/11 04:52:57;;;;;;;1999.90;999.90;;;12.60;99.90;;;;;;5033459;28;20013;-80
2023/05/11 04:55:23;;;;;;;1999.90;999.90;;;12.60;99.90;;;;;;5024807;28;20075;-79
2023/05/11 04:57:48;;;;;;;1999.90;999.90;;;12.70;99.90;;;;;;5033642;28;20029;-74
2023/05/11 05:00:14;;;;;;;1999.90;999.90;;;12.80;99.90;;;;;;5044283;28;20513;-74
2023/05/11 05:02:40;;;;;;;1999.90;999.90;;;12.90;99.90;;;;;;5034649;28;20531;-79
2023/05/11 05:05:06;;;;;;;1999.90;999.90;;;13.00;99.90;;;;;;5034815;28;20034;-77
2023/05/11 05:07:31;;;;;;;1999.90;999.90;;;13.00;99.90;;;;;;5034103;28;20045;-73
2023/05/11 05:09:57;;;;;;;1999.90;999.90;;;12.90;99.90;;;;;;5034706;28;20030;-73
2023/05/11 05:12:23;;;;;;;1999.90;999.90;;;12.70;99.90;;;;;;5034752;28;20107;-73
2023/05/11 05:14:48;;;;;;;1999.90;999.90;;;12.50;99.90;;;;;;5033711;28;20022;-77
2023/05/11 05:17:14;;;;;;;1999.90;999.90;;;12.60;99.90;;;;;;5034394;28;20025;-77
2023/05/11 05:19:39;;;;;;;1999.90;999.90;;;12.60;99.90;;;;;;5041260;28;20079;-77
2023/05/11 05:22:05;;;;;;;1999.90;999.90;;;12.50;99.90;;;;;;5048720;28;20488;-73
2023/05/11 05:24:31;;;;;;;1999.90;999.90;;;12.50;99.90;;;;;;5040183;28;20016;-74
2023/05/11 05:26:56;;;;;;;1999.90;999.90;;;12.60;99.90;;;;;;5047620;28;20401;-73
2023/05/11 05:29:22;;;;;;;1999.90;999.90;;;12.60;99.90;;;;;;5029281;28;20068;-73
2023/05/11 05:31:47;;;;;;;1999.90;999.90;;;12.70;99.90;;;;;;5034288;28;20030;-74
2023/05/11 05:34:13;;;;;;;1999.90;999.90;;;12.80;99.90;;;;;;5022612;28;20029;-74
2023/05/11 05:36:39;;;;;;;1999.90;999.90;;;12.90;99.90;;;;;;5033141;28;20032;-74
2023/05/11 05:39:08;;;;;;;1999.90;999.90;;;13.00;99.90;;;;;;5046081;28;20048;-74
2023/05/11 05:41:35;;;;;;;1999.90;999.90;;;13.10;99.90;;;;;;5032221;28;20032;-76
2023/05/11 05:44:01;;;;;;;1999.90;999.90;;;13.30;99.90;;;;;;5033999;28;20072;-77
2023/05/11 05:46:27;;;;;;;1999.90;999.90;;;13.50;99.90;;;;;;5035585;28;20407;-77
2023/05/11 05:48:52;;;;;;;1999.90;999.90;;;13.60;99.90;;;;;;5040496;28;20432;-72
2023/05/11 05:51:18;;;;;;;1999.90;999.90;;;13.60;99.90;;;;;;5028455;28;20045;-73
2023/05/11 05:53:44;;;;;;;1999.90;999.90;;;13.50;99.90;;;;;;5040266;28;20091;-77
2023/05/11 05:56:09;;;;;;;1999.90;999.90;;;13.60;99.90;;;;;;5033064;28;20029;-73
2023/05/11 05:58:35;;;;;;;1999.90;999.90;;;13.70;99.90;;;;;;5032055;28;20393;-73
2023/05/11 06:01:01;;;;;;;1999.90;999.90;;;13.80;99.90;;;;;;5032676;28;20022;-72
2023/05/11 06:03:26;;;;;;;1999.90;999.90;;;13.80;99.90;;;;;;5032892;28;20037;-73
2023/05/11 06:05:52;;;;;;;1999.90;999.90;;;13.90;99.90;;;;;;5032536;28;20119;-77
2023/05/11 06:08:17;;;;;;;1999.90;999.90;;;13.80;99.90;;;;;;5031302;28;20543;-73
2023/05/11 06:10:43;;;;;;;1999.90;999.90;;;13.90;99.90;;;;;;5030538;28;20035;-73
2023/05/11 06:13:08;;;;;;;1999.90;999.90;;;14.00;99.90;;;;;;5031603;28;20163;-73
2023/05/11 06:15:34;;;;;;;1999.90;999.90;;;14.20;99.90;;;;;;5031175;28;20029;-73
2023/05/11 06:18:00;;;;;;;1999.90;999.90;;;14.20;99.90;;;;;;5029280;28;20774;-73
2023/05/11 06:20:25;;;;;;;1999.90;999.90;;;14.30;99.90;;;;;;5031399;28;20052;-78
2023/05/11 06:22:51;;;;;;;1999.90;999.90;;;14.30;99.90;;;;;;5031234;28;20079;-73
2023/05/11 06:25:16;;;;;;;1999.90;999.90;;;14.20;99.90;;;;;;5029820;28;20746;-77
2023/05/11 06:27:42;;;;;;;1999.90;999.90;;;14.10;99.90;;;;;;5027043;28;20037;-73
2023/05/11 06:30:08;;;;;;;1999.90;999.90;;;14.20;99.90;;;;;;5031052;28;20071;-75
2023/05/11 06:32:34;;;;;;;1999.90;999.90;;;14.30;99.90;;;;;;5027599;28;20029;-78
2023/05/11 06:35:00;;;;;;;1999.90;999.90;;;14.20;99.90;;;;;;5029780;28;20033;-74
2023/05/11 06:37:28;;;;;;;1999.90;999.90;;;14.10;99.90;;;;;;5028449;28;20022;-73
2023/05/11 06:39:54;;;;;;;1999.90;999.90;;;14.10;99.90;;;;;;5034940;28;20044;-73
2023/05/11 06:42:22;;;;;;;1999.90;999.90;;;14.30;99.90;;;;;;5029595;28;20041;-73
2023/05/11 06:44:48;;;;;;;1999.90;999.90;;;14.20;99.90;;;;;;5030812;28;20144;-77
2023/05/11 06:47:13;;;;;;;1999.90;999.90;;;14.40;99.90;;;;;;5029953;28;20061;-75
2023/05/11 06:49:41;;;;;;;1999.90;999.90;;;14.40;99.90;;;;;;5026372;28;20698;-78
2023/05/11 06:52:08;;;;;;;1999.90;999.90;;;14.30;99.90;;;;;;5030749;28;20035;-75
2023/05/11 06:54:34;;;;;;;1999.90;999.90;;;14.50;99.90;;;;;;5028593;28;20022;-72
2023/05/11 06:57:02;;;;;;;1999.90;999.90;;;14.80;99.90;;;;;;5030790;28;20041;-78
2023/05/11 06:59:28;;;;;;;1999.90;999.90;;;14.80;99.90;;;;;;5042895;28;20033;-79
2023/05/11 07:01:54;;;;;;;1999.90;999.90;;;15.00;99.90;;;;;;5031730;28;20044;-77
2023/05/11 07:04:19;;;;;;;1999.90;999.90;;;15.00;99.90;;;;;;5029950;28;20046;-79
2023/05/11 07:06:45;;;;;;;1999.90;999.90;;;15.20;99.90;;;;;;5027344;28;20393;-72
2023/05/11 07:09:11;;;;;;;1999.90;999.90;;;15.40;99.90;;;;;;5028028;28;20034;-73
2023/05/11 07:11:36;;;;;;;1999.90;999.90;;;15.40;99.90;;;;;;5030864;28;20369;-73
2023/05/11 07:14:02;;;;;;;1999.90;999.90;;;15.70;99.90;;;;;;5031416;28;20048;-76
2023/05/11 07:16:28;;;;;;;1999.90;999.90;;;15.80;99.90;;;;;;5033470;28;20051;-72
2023/05/11 07:18:53;;;;;;;1999.90;999.90;;;15.60;99.90;;;;;;5044635;28;20538;-72
2023/05/11 07:21:21;;;;;;;1999.90;999.90;;;15.50;99.90;;;;;;5040312;28;20024;-77
2023/05/11 07:23:46;;;;;;;1999.90;999.90;;;15.20;99.90;;;;;;5037134;28;20492;-77
2023/05/11 07:26:12;;;;;;;1999.90;999.90;;;15.40;99.90;;;;;;5032455;28;20035;-77
2023/05/11 07:28:39;;;;;;;1999.90;999.90;;;15.40;99.90;;;;;;5031324;28;20037;-77
2023/05/11 07:31:05;;;;;;;1999.90;999.90;;;15.60;99.90;;;;;;5032184;28;20056;-77
2023/05/11 07:33:32;;;;;;;1999.90;999.90;;;15.80;99.90;;;;;;5028708;28;20497;-72
2023/05/11 07:35:57;;;;;;;1999.90;999.90;;;15.90;99.90;;;;;;5031285;28;20024;-73
2023/05/11 07:38:23;;;;;;;1999.90;999.90;;;15.90;99.90;;;;;;5039828;28;20395;-77
2023/05/11 07:40:49;;;;;;;1999.90;999.90;;;16.30;99.90;;;;;;5031321;28;20087;-78
2023/05/11 07:43:14;;;;;;;1999.90;999.90;;;16.80;99.90;;;;;;5030584;28;20040;-73
2023/05/11 07:45:40;;;;;;;1999.90;999.90;;;16.80;99.90;;;;;;5032129;28;20032;-72
2023/05/11 07:48:06;;;;;;;1999.90;999.90;;;17.20;99.90;;;;;;5036062;28;20046;-73
2023/05/11 07:50:31;;;;;;;1999.90;999.90;;;17.70;99.90;;;;;;5031116;28;20030;-78
2023/05/11 07:52:57;;;;;;;1999.90;999.90;;;17.90;99.90;;;;;;5031885;28;20401;-73
2023/05/11 07:55:23;;;;;;;1999.90;999.90;;;19.20;99.90;;;;;;5030552;28;20106;-73
2023/05/11 07:57:51;;;;;;;1999.90;999.90;;;19.20;99.90;;;;;;5030698;28;20095;-72
2023/05/11 08:00:18;;;;;;;1999.90;999.90;;;18.50;99.90;;;;;;5034336;28;20028;-77
2023/05/11 08:02:43;;;;;;;1999.90;999.90;;;18.70;99.90;;;;;;5034207;28;20044;-78
2023/05/11 08:05:09;;;;;;;1999.90;999.90;;;18.50;99.90;;;;;;5036667;28;20033;-77
2023/05/11 08:07:34;;;;;;;1999.90;999.90;;;17.60;99.90;;;;;;5036202;28;20457;-78
2023/05/11 08:10:00;;;;;;;1999.90;999.90;;;17.60;99.90;;;;;;5030220;28;20025;-78
2023/05/11 08:12:26;;;;;;;1999.90;999.90;;;17.80;99.90;;;;;;5029836;28;20135;-78
2023/05/11 08:14:51;;;;;;;1999.90;999.90;;;17.80;99.90;;;;;;5028415;28;20018;-73
2023/05/11 08:17:17;;;;;;;1999.90;999.90;;;17.80;99.90;;;;;;5035363;28;20033;-77
2023/05/11 08:19:42;;;;;;;1999.90;999.90;;;18.80;99.90;;;;;;5030513;28;20496;-78
2023/05/11 08:22:08;;;;;;;1999.90;999.90;;;20.00;99.90;;;;;;5030351;28;20163;-78
2023/05/11 08:24:34;;;;;;;1999.90;999.90;;;20.60;99.90;;;;;;5029602;28;20025;-73
2023/05/11 08:27:00;;;;;;;1999.90;999.90;;;21.30;99.90;;;;;;5029243;28;20039;-74
2023/05/11 08:29:26;;;;;;;1999.90;999.90;;;22.20;99.90;;;;;;5027043;28;20496;-73
2023/05/11 08:31:52;;;;;;;1999.90;999.90;;;21.70;99.90;;;;;;5029864;28;20105;-75
2023/05/11 08:34:17;;;;;;;1999.90;999.90;;;21.90;99.90;;;;;;5027248;28;20523;-73
2023/05/11 08:36:43;;;;;;;1999.90;999.90;;;22.40;99.90;;;;;;5032208;28;20029;-73
2023/05/11 08:39:09;;;;;;;1999.90;999.90;;;25.20;99.90;;;;;;5029007;28;20440;-73
2023/05/11 08:41:35;;;;;;;1999.90;999.90;;;26.10;99.90;;;;;;5031054;28;20096;-79
2023/05/11 08:44:01;;;;;;;1999.90;999.90;;;27.60;98.00;;;;;;5034199;28;20053;-78
2023/05/11 08:46:29;;;;;;;1999.90;999.90;;;27.80;97.50;;;;;;5029267;28;20540;-79
2023/05/11 08:48:55;;;;;;;1999.90;999.90;;;26.50;98.90;;;;;;5023358;28;20559;-73
2023/05/11 08:51:22;;;;;;;1999.90;999.90;;;24.20;99.20;;;;;;5024674;28;20080;-73
2023/05/11 08:53:48;;;;;;;1999.90;999.90;;;21.80;99.90;;;;;;5029245;28;20038;-74
2023/05/11 08:56:15;;;;;;;1999.90;999.90;;;19.80;99.90;;;;;;5033036;28;20076;-77
2023/05/11 08:58:41;;;;;;;1999.90;999.90;;;18.80;99.90;;;;;;5029832;28;20105;-77
2023/05/11 09:01:11;;;;;;;1999.90;999.90;;;18.00;99.90;;;;;;5029918;28;20044;-77
2023/05/11 09:03:38;;;;;;;1999.90;999.90;;;17.60;99.90;;;;;;5027759;28;20030;-73
2023/05/11 09:06:06;;;;;;;1999.90;999.90;;;17.30;99.90;;;;;;5028122;28;20071;-73
2023/05/11 09:08:33;;;;;;;1999.90;999.90;;;17.20;99.90;;;;;;5021839;28;20018;-77
2023/05/11 09:11:00;;;;;;;1999.90;999.90;;;17.40;99.90;;;;;;5028541;28;20031;-72
2023/05/11 09:13:25;;;;;;;1999.90;999.90;;;17.50;99.90;;;;;;5029442;28;20546;-73
2023/05/11 09:15:51;;;;;;;1999.90;999.90;;;18.40;99.90;;;;;;5027754;28;20027;-73
2023/05/11 09:18:17;;;;;;;1999.90;999.90;;;19.90;99.90;;;;;;5029168;28;20045;-73
2023/05/11 09:20:43;;;;;;;1999.90;999.90;;;19.90;99.90;;;;;;5028535;28;20166;-78
2023/05/11 09:23:09;;;;;;;1999.90;999.90;;;20.20;99.90;;;;;;5029397;28;20093;-77
2023/05/11 09:25:38;;;;;;;1999.90;999.90;;;21.20;99.90;;;;;;5023196;28;20030;-79
2023/05/11 09:28:04;;;;;;;1999.90;999.90;;;21.50;99.90;;;;;;5024886;28;20025;-73
2023/05/11 09:30:30;;;;;;;1999.90;999.90;;;21.60;99.90;;;;;;5024945;28;20467;-73
2023/05/11 09:32:57;;;;;;;1999.90;999.90;;;22.30;99.90;;;;;;5027130;28;20148;-73
2023/05/11 09:35:24;;;;;;;1999.90;999.90;;;22.70;99.90;;;;;;5028986;28;20117;-77
2023/05/11 09:38:07;;;;;;;1999.90;999.90;;;21.80;99.90;;;;;;5034988;28;20026;-73
2023/05/11 09:40:37;;;;;;;1999.90;999.90;;;21.10;99.90;;;;;;5030650;28;20084;-78
2023/05/11 09:43:20;;;;;;;1999.90;999.90;;;21.70;99.90;;;;;;5034647;28;20037;-73
2023/05/11 09:45:48;;;;;;;1999.90;999.90;;;21.40;99.90;;;;;;5026397;28;20484;-78
2023/05/11 09:48:20;;;;;;;1999.90;999.90;;;21.20;99.90;;;;;;5027172;28;20803;-74
2023/05/11 09:50:47;;;;;;;1999.90;999.90;;;21.60;99.90;;;;;;5023810;28;20488;-78
2023/05/11 09:53:13;;;;;;;1999.90;999.90;;;21.50;99.90;;;;;;5023190;28;20280;-78
2023/05/11 09:55:51;;;;;;;1999.90;999.90;;;21.60;99.90;;;;;;5028719;28;20056;-73
2023/05/11 09:58:16;;;;;;;1999.90;999.90;;;22.10;99.90;;;;;;5044590;28;20541;-78
2023/05/11 10:00:52;;;;;;;1999.90;999.90;;;21.50;99.90;;;;;;5035121;28;20025;-73
2023/05/11 10:03:18;;;;;;;1999.90;999.90;;;21.10;99.90;;;;;;5048860;28;20033;-78
2023/05/11 10:05:58;;;;;;;1999.90;999.90;;;20.80;99.90;;;;;;5031903;28;20481;-77
2023/05/11 10:08:34;;;;;;;1999.90;999.90;;;21.10;99.90;;;;;;5031668;28;20041;-73
2023/05/11 10:11:05;;;;;;;1999.90;999.90;;;21.60;99.90;;;;;;5025442;28;20035;-73
2023/05/11 10:13:32;;;;;;;1999.90;999.90;;;21.50;99.90;;;;;;5026947;28;20033;-78
2023/05/11 10:15:59;;;;;;;1999.90;999.90;;;21.00;99.90;;;;;;5027309;28;20460;-77
2023/05/11 10:18:25;;;;;;;1999.90;999.90;;;20.40;99.90;;;;;;5028293;28;20022;-78
2023/05/11 10:20:51;;;;;;;1999.90;999.90;;;19.60;99.90;;;;;;5029288;28;20075;-74
2023/05/11 10:23:18;;;;;;;1999.90;999.90;;;19.20;99.90;;;;;;5029198;28;20033;-73
2023/05/11 10:25:44;;;;;;;1999.90;999.90;;;19.20;99.90;;;;;;5028602;28;20101;-77
2023/05/11 10:28:10;;;;;;;1999.90;999.90;;;20.70;99.90;;;;;;5026058;28;20120;-78
2023/05/11 10:30:36;;;;;;;1999.90;999.90;;;22.40;99.90;;;;;;5024184;28;20606;-78
2023/05/11 10:33:04;;;;;;;1999.90;999.90;;;23.90;99.90;;;;;;5027429;28;20045;-78
2023/05/11 10:35:30;;;;;;;1999.90;999.90;;;23.50;99.90;;;;;;5020404;28;20013;-73
2023/05/11 10:37:57;;;;;;;1999.90;999.90;;;23.30;99.90;;;;;;5029717;28;20025;-78
2023/05/11 10:40:23;;;;;;;1999.90;999.90;;;24.00;99.90;;;;;;5026890;28;20052;-78
2023/05/11 10:43:06;;;;;;;1999.90;999.90;;;23.70;99.90;;;;;;5028504;28;20469;-78
2023/05/11 10:45:47;;;;;;;1999.90;999.90;;;23.30;99.50;;;;;;5025339;28;20465;-73
2023/05/11 10:48:47;;;;;;;1999.90;999.90;;;23.20;99.90;;;;;;5029922;28;20496;-73
2023/05/11 10:51:23;;;;;;;1999.90;999.90;;;22.40;99.90;;;;;;5024084;28;20033;-74
2023/05/11 10:54:30;;;;;;;1999.90;999.90;;;20.90;99.90;;;;;;5028460;28;20021;-73
2023/05/11 10:57:23;;;;;;;1999.90;999.90;;;19.10;99.90;;;;;;5008697;28;20120;-78
2023/05/11 11:00:10;;;;;;;;;;;19.50;99.90;;;;;;5026377;28;20071;-73
2023/05/11 11:02:37;;;;;;;1999.90;999.90;;;21.90;99.90;;;;;;5030044;28;19913;-73
2023/05/11 11:05:06;;;;;;;1999.90;999.90;;;22.20;98.50;;;;;;5024603;28;20052;-78
2023/05/11 11:07:55;;;;;;;1999.90;999.90;;;21.10;99.90;;;;;;5027177;28;20026;-75
2023/05/11 11:10:30;;;;;;;1999.90;999.90;;;22.70;99.90;;;;;;5026360;28;20128;-73
2023/05/11 11:13:08;;;;;;;1999.90;999.90;;;23.80;98.20;;;;;;5029174;28;20079;-74
2023/05/11 11:15:55;;;;;;;1999.90;999.90;;;24.40;96.70;;;;;;5027691;28;20469;-73
2023/05/11 11:18:25;;;;;;;1999.90;999.90;;;22.50;99.00;;;;;;5022582;28;20544;-73
2023/05/11 11:20:53;;;;;;;1999.90;999.90;;;21.90;99.90;;;;;;5030049;28;20033;-77
2023/05/11 11:23:44;;;;;;;1999.90;999.90;;;21.00;99.90;;;;;;5031695;28;20048;-78
2023/05/11 11:26:14;;;;;;;1999.90;999.90;;;20.50;99.90;;;;;;5026772;28;20080;-73
2023/05/11 11:29:00;;;;;;;1999.90;999.90;;;22.40;99.90;;;;;;5024345;28;20028;-73
2023/05/11 11:31:30;;;;;;;1999.90;999.90;;;23.30;99.90;;;;;;5026150;28;20039;-77
2023/05/11 11:34:17;;;;;;;1999.90;999.90;;;23.70;99.90;;;;;;5026575;28;20036;-79
2023/05/11 11:37:12;;;;;;;1999.90;999.90;;;24.60;99.90;;;;;;5022411;28;20079;-76
2023/05/11 11:39:41;;;;;;;1999.90;999.90;;;24.80;97.00;;;;;;5029161;28;20037;-73
2023/05/11 11:42:13;;;;;;;1999.90;999.90;;;24.70;97.90;;;;;;5019721;28;20043;-76
2023/05/11 11:44:40;;;;;;;1999.90;999.90;;;24.20;97.90;;;;;;5024721;28;20033;-78
2023/05/11 11:47:25;;;;;;;1999.90;999.90;;;24.40;97.80;;;;;;5022076;28;20038;-78
2023/05/11 11:49:53;;;;;;;1999.90;999.90;;;24.60;98.20;;;;;;5025218;28;20028;-79
2023/05/11 11:52:27;;;;;;;1999.90;999.90;;;24.30;97.30;;;;;;5025721;28;20033;-75
2023/05/11 11:54:54;;;;;;;1999.90;999.90;;;23.80;97.40;;;;;;5025846;28;20017;-74
2023/05/11 11:57:32;;;;;;;1999.90;999.90;;;24.10;97.60;;;;;;5028644;28;20330;-77
2023/05/11 12:00:11;;;;;;;1999.90;999.90;;;23.90;97.20;;;;;;5025618;28;20452;-78
2023/05/11 12:02:41;;;;;;;1999.90;999.90;;;22.60;97.40;;;;;;5030018;28;20067;-78
2023/05/11 12:05:18;;;;;;;1999.90;999.90;;;23.50;97.80;;;;;;5032757;28;20493;-74
2023/05/11 12:07:52;;;;;;;1999.90;999.90;;;23.80;98.40;;;;;;5033447;28;20078;-76